createdAt,value
2019-01-24T00:03:33.327Z,71.73
2019-01-24T00:07:17.999Z,75.80
2019-01-24T00:11:02.894Z,68.87
2019-01-24T00:14:47.487Z,71.03
2019-01-24T00:18:32.189Z,67.47
2019-01-24T00:22:16.835Z,73.10
2019-01-24T00:26:01.435Z,70.27
2019-01-24T00:29:38.671Z,70.93
2019-01-24T00:37:26.807Z,66.90
2019-01-24T00:41:11.426Z,74.67
2019-01-24T00:48:52.015Z,73.27
2019-01-24T00:52:36.626Z,63.30
2019-01-24T00:56:21.255Z,74.27
2019-01-24T01:00:46.753Z,76.17
2019-01-24T01:04:31.351Z,67.17
2019-01-24T01:15:38.492Z,79.30
2019-01-24T01:19:23.364Z,65.13
2019-01-24T01:23:08.014Z,65.77
2019-01-24T01:26:52.614Z,57.17
2019-01-24T01:30:29.471Z,62.67
2019-01-24T01:34:14.073Z,69.97
2019-01-24T01:37:59.028Z,62.03
2019-01-24T01:41:43.643Z,66.13
2019-01-24T01:45:28.267Z,67.20
2019-01-24T01:49:12.903Z,65.87
2019-01-24T01:52:58.958Z,70.30
2019-01-24T02:00:47.397Z,63.60
2019-01-24T02:04:31.984Z,67.00
2019-01-24T02:08:35.412Z,71.27
2019-01-24T02:12:20.057Z,64.87
2019-01-24T02:19:54.743Z,72.17
2019-01-24T02:23:39.328Z,67.83
2019-01-24T02:27:24.281Z,66.10
2019-01-24T02:31:01.206Z,62.17
2019-01-24T02:34:49.740Z,67.63
2019-01-24T02:38:32.439Z,72.57
2019-01-24T02:46:07.595Z,70.70
2019-01-24T02:49:52.235Z,71.93
2019-01-24T02:53:36.846Z,70.07
2019-01-24T02:57:21.465Z,72.73
2019-01-24T03:01:06.102Z,67.43
2019-01-24T03:04:56.685Z,73.60
2019-01-24T03:08:37.064Z,66.70
2019-01-24T03:12:21.705Z,68.23
2019-01-24T03:16:06.327Z,69.37
2019-01-24T03:19:50.963Z,79.13
2019-01-24T03:23:35.918Z,68.50
2019-01-24T03:27:20.543Z,66.50
2019-01-24T03:30:58.322Z,62.87
2019-01-24T03:34:42.955Z,71.63
2019-01-24T03:38:27.563Z,76.17
2019-01-24T03:42:12.208Z,77.20
2019-01-24T03:45:56.803Z,69.67
2019-01-24T03:49:41.435Z,73.17
2019-01-24T03:57:15.839Z,76.37
2019-01-24T04:01:00.459Z,76.63
2019-01-24T04:04:45.082Z,77.43
2019-01-24T04:08:30.446Z,75.47
2019-01-24T04:12:15.097Z,78.97
2019-01-24T04:16:00.085Z,73.23
2019-01-24T04:19:44.714Z,77.73
2019-01-24T04:23:29.308Z,70.50
2019-01-24T04:27:32.741Z,80.63
2019-01-24T04:31:09.757Z,75.20
2019-01-24T04:34:54.354Z,82.73
2019-01-24T04:38:39.011Z,72.80
2019-01-24T04:42:23.612Z,79.03
2019-01-24T04:46:08.236Z,78.93
2019-01-24T04:49:52.862Z,76.07
2019-01-24T04:53:37.482Z,84.37
2019-01-24T04:57:22.069Z,74.07
2019-01-24T05:01:06.972Z,84.73
2019-01-24T05:04:51.604Z,75.50
2019-01-24T05:08:36.242Z,87.37
2019-01-24T05:12:20.885Z,79.73
2019-01-24T05:16:05.501Z,73.77
2019-01-24T05:19:50.068Z,80.03
2019-01-24T05:23:34.715Z,80.07
2019-01-24T05:27:19.350Z,85.47
2019-01-24T05:30:56.586Z,78.53
2019-01-24T05:34:41.226Z,69.97
2019-01-24T05:38:25.852Z,82.50
2019-01-24T05:42:10.487Z,81.40
2019-01-24T05:45:55.124Z,77.50
2019-01-24T05:49:40.091Z,82.60
2019-01-24T05:53:24.715Z,82.47
2019-01-24T05:57:09.354Z,84.50
2019-01-24T06:00:54.054Z,81.73
2019-01-24T06:04:38.626Z,88.50
2019-01-24T06:08:23.283Z,83.00
2019-01-24T06:12:07.917Z,80.23
2019-01-24T06:15:52.546Z,79.23
2019-01-24T06:19:37.267Z,77.63
2019-01-24T06:23:21.910Z,84.67
2019-01-24T06:27:06.558Z,83.73
2019-01-24T06:30:43.804Z,73.97
2019-01-24T06:34:28.415Z,79.57
2019-01-24T06:38:13.403Z,80.90
2019-01-24T06:41:58.690Z,86.87
2019-01-24T06:45:43.267Z,76.33
2019-01-24T06:49:27.952Z,83.10
2019-01-24T06:53:12.611Z,76.40
2019-01-24T06:56:57.246Z,84.03
2019-01-24T07:00:41.880Z,78.53
2019-01-24T07:04:26.480Z,81.90
2019-01-24T07:08:11.127Z,85.90
2019-01-24T07:11:56.442Z,85.57
2019-01-24T07:15:41.521Z,81.70
2019-01-24T07:19:26.185Z,81.97
2019-01-24T07:23:11.025Z,85.37
2019-01-24T07:30:45.661Z,85.43
2019-01-24T07:34:22.520Z,87.67
2019-01-24T07:38:07.159Z,89.67
2019-01-24T07:41:51.795Z,82.00
2019-01-24T07:45:38.677Z,84.30
2019-01-24T07:49:23.318Z,83.17
2019-01-24T07:53:27.309Z,90.97
2019-01-24T07:57:11.930Z,84.50
2019-01-24T08:00:56.575Z,79.90
2019-01-24T08:04:41.521Z,77.97
2019-01-24T08:08:26.133Z,78.43
2019-01-24T08:12:10.759Z,89.50
2019-01-24T08:15:55.741Z,83.87
2019-01-24T08:19:40.405Z,89.60
2019-01-24T08:23:25.044Z,78.60
2019-01-24T08:27:09.759Z,83.40
2019-01-24T08:30:46.487Z,87.80
2019-01-24T08:34:31.140Z,85.57
2019-01-24T08:42:06.622Z,90.23
2019-01-24T08:45:51.256Z,92.23
2019-01-24T08:49:35.867Z,83.83
2019-01-24T08:53:20.506Z,83.60
2019-01-24T08:57:05.118Z,86.90
2019-01-24T09:00:49.732Z,91.23
2019-01-24T09:04:34.358Z,96.40
2019-01-24T09:08:18.981Z,96.00
2019-01-24T09:12:03.335Z,81.80
2019-01-24T09:15:47.979Z,85.97
2019-01-24T09:19:25.000Z,96.40
2019-01-24T09:23:09.636Z,85.03
2019-01-24T09:26:54.262Z,87.27
2019-01-24T09:30:38.885Z,88.27
2019-01-24T09:34:23.506Z,84.53
2019-01-24T09:38:08.160Z,84.93
2019-01-24T09:41:53.101Z,83.80
2019-01-24T09:45:39.058Z,87.83
2019-01-24T09:49:23.696Z,88.43
2019-01-24T09:53:08.606Z,98.23
2019-01-24T09:56:53.256Z,90.27
2019-01-24T10:00:22.093Z,95.33
2019-01-24T10:04:06.748Z,92.20
2019-01-24T10:07:51.395Z,88.40
2019-01-24T10:11:36.280Z,91.17
2019-01-24T10:19:31.513Z,91.00
2019-01-24T10:23:08.518Z,91.07
2019-01-24T10:26:53.177Z,84.40
2019-01-24T10:30:42.616Z,91.83
2019-01-24T10:38:14.682Z,84.93
2019-01-24T10:42:18.403Z,92.57
2019-01-24T10:46:02.998Z,83.43
2019-01-24T10:53:51.157Z,91.30
2019-01-24T10:57:36.093Z,88.77
2019-01-24T11:05:51.538Z,95.27
2019-01-24T11:09:36.181Z,98.20
2019-01-24T11:13:39.647Z,93.90
2019-01-24T11:17:24.326Z,98.00
2019-01-24T11:21:02.145Z,101.87
2019-01-24T11:28:37.026Z,101.20
2019-01-24T11:32:21.691Z,96.50
2019-01-24T11:36:06.606Z,102.67
2019-01-24T11:39:51.278Z,91.73
2019-01-24T11:43:35.963Z,95.77
2019-01-24T11:47:20.876Z,98.27
2019-01-24T11:51:05.567Z,94.50
2019-01-24T11:54:50.526Z,93.30
2019-01-24T11:58:16.107Z,92.63
2019-01-24T12:02:00.721Z,99.63
2019-01-24T12:05:46.199Z,92.70
2019-01-24T12:09:30.848Z,90.10
2019-01-24T12:13:09.008Z,94.13
2019-01-24T12:16:53.663Z,92.33
2019-01-24T12:24:42.574Z,86.63
2019-01-24T12:28:27.209Z,86.37
2019-01-24T12:32:11.874Z,97.00
2019-01-24T12:35:56.481Z,95.37
2019-01-24T12:39:41.141Z,99.23
2019-01-24T12:43:26.041Z,93.90
2019-01-24T12:47:10.686Z,91.27
2019-01-24T12:50:55.301Z,87.97
2019-01-24T12:54:39.975Z,89.20
2019-01-24T12:58:17.675Z,86.63
2019-01-24T13:02:02.310Z,86.80
2019-01-24T13:05:46.938Z,80.63
2019-01-24T13:09:32.320Z,85.53
2019-01-24T13:13:17.520Z,85.43
2019-01-24T13:17:02.152Z,87.80
2019-01-24T13:20:46.788Z,94.37
2019-01-24T13:24:31.400Z,80.87
2019-01-24T13:28:16.399Z,87.37
2019-01-24T13:36:04.534Z,86.47
2019-01-24T13:39:49.195Z,86.10
2019-01-24T13:43:33.803Z,85.77
2019-01-24T13:47:18.676Z,90.57
2019-01-24T13:51:03.305Z,83.57
2019-01-24T13:54:48.214Z,87.23
2019-01-24T13:58:25.486Z,84.07
2019-01-24T14:02:10.098Z,89.50
2019-01-24T14:05:55.142Z,83.20
2019-01-24T14:09:39.795Z,81.43
2019-01-24T14:13:24.458Z,81.83
2019-01-24T14:17:09.110Z,86.27
2019-01-24T14:20:53.745Z,89.20
2019-01-24T14:24:38.759Z,76.30
2019-01-24T14:28:23.368Z,78.07
2019-01-24T14:32:08.137Z,85.27
2019-01-24T14:35:52.876Z,83.47
2019-01-24T14:39:37.494Z,75.97
2019-01-24T14:43:03.609Z,77.17
2019-01-24T14:46:29.182Z,81.77
2019-01-24T14:49:54.755Z,78.30
2019-01-24T14:53:20.590Z,77.70
2019-01-24T14:57:05.312Z,79.80
2019-01-24T15:00:44.817Z,82.43
2019-01-24T15:04:29.714Z,77.30
2019-01-24T15:08:14.917Z,81.00
2019-01-24T15:11:59.642Z,78.03
2019-01-24T15:15:44.255Z,78.40
2019-01-24T15:19:28.899Z,70.87
2019-01-24T15:23:13.499Z,80.47
2019-01-24T15:26:58.143Z,75.80
2019-01-24T15:30:42.798Z,85.77
2019-01-24T15:34:27.472Z,78.13
2019-01-24T15:38:12.496Z,76.37
2019-01-24T15:41:57.124Z,80.40
2019-01-24T15:45:41.787Z,81.47
2019-01-24T15:49:26.398Z,76.53
2019-01-24T15:53:11.035Z,73.17
2019-01-24T15:56:55.846Z,69.23
2019-01-24T16:00:40.708Z,77.60
2019-01-24T16:04:25.380Z,79.47
2019-01-24T16:08:10.064Z,85.43
2019-01-24T16:11:54.664Z,79.33
2019-01-24T16:15:39.288Z,73.73
2019-01-24T16:19:23.934Z,79.23
2019-01-24T16:23:08.611Z,94.63
2019-01-24T16:26:53.244Z,94.67
2019-01-24T16:34:41.856Z,79.80
2019-01-24T16:38:26.657Z,97.15
2019-01-24T16:42:11.278Z,81.63
2019-01-24T16:45:55.865Z,74.63
2019-01-24T16:49:40.511Z,81.03
2019-01-24T16:53:25.191Z,77.63
2019-01-24T16:57:11.209Z,79.73
2019-01-24T17:01:34.608Z,87.67
2019-01-24T17:05:19.506Z,80.80
2019-01-24T17:13:14.790Z,85.87
2019-01-24T17:21:02.913Z,96.80
2019-01-24T17:24:47.290Z,94.90
2019-01-24T17:28:31.920Z,82.67
2019-01-24T17:32:16.591Z,82.07
2019-01-24T17:35:53.798Z,82.33
2019-01-24T17:39:38.422Z,83.33
2019-01-24T17:43:23.186Z,81.47
2019-01-24T17:51:11.289Z,78.87
2019-01-24T17:54:55.885Z,79.97
2019-01-24T17:58:40.528Z,80.93
2019-01-24T18:02:25.120Z,82.60
2019-01-24T18:06:29.273Z,88.03
2019-01-24T18:10:33.989Z,89.63
2019-01-24T18:14:18.613Z,82.60
2019-01-24T18:18:23.801Z,89.27
2019-01-24T18:22:08.411Z,90.03
2019-01-24T18:25:53.004Z,83.77
2019-01-24T18:29:37.635Z,83.67
2019-01-24T18:33:14.480Z,86.93
2019-01-24T18:36:59.164Z,83.10
2019-01-24T18:40:43.813Z,77.47
2019-01-24T18:44:28.418Z,81.20
2019-01-24T18:48:13.116Z,92.30
2019-01-24T18:51:57.724Z,82.03
2019-01-24T18:59:39.844Z,83.37
2019-01-24T19:03:24.495Z,92.93
2019-01-24T19:07:09.226Z,90.93
2019-01-24T19:10:54.283Z,95.80
2019-01-24T19:14:38.934Z,96.47
2019-01-24T19:18:23.558Z,100.13
2019-01-24T19:22:08.519Z,91.97
2019-01-24T19:25:53.712Z,90.53
2019-01-24T19:29:38.297Z,95.30
2019-01-24T19:33:15.534Z,97.20
2019-01-24T19:37:00.167Z,82.93
2019-01-24T19:40:44.763Z,89.00
2019-01-24T19:44:15.652Z,87.27
2019-01-24T19:47:56.686Z,96.63
2019-01-24T19:51:41.295Z,90.30
2019-01-24T19:55:25.986Z,93.47
2019-01-24T19:59:10.585Z,95.97
2019-01-24T20:02:55.228Z,94.70
2019-01-24T20:06:39.834Z,92.73
2019-01-24T20:11:04.559Z,100.00
2019-01-24T20:14:49.132Z,92.87
2019-01-24T20:18:33.777Z,94.30
2019-01-24T20:22:18.445Z,97.20
2019-01-24T20:26:03.076Z,100.50
2019-01-24T20:29:47.728Z,92.77
2019-01-24T20:33:32.359Z,92.73
2019-01-24T20:37:09.570Z,90.23
2019-01-24T20:40:54.198Z,87.23
2019-01-24T20:48:30.383Z,96.60
2019-01-24T20:52:15.091Z,87.10
2019-01-24T20:55:59.748Z,86.20
2019-01-24T21:00:03.529Z,86.53
2019-01-24T21:03:55.121Z,86.07
2019-01-24T21:07:35.289Z,90.03
2019-01-24T21:11:20.042Z,87.37
2019-01-24T21:19:09.285Z,93.27
2019-01-24T21:22:53.915Z,81.60
2019-01-24T21:26:38.578Z,88.53
2019-01-24T21:30:28.722Z,88.17
2019-01-24T21:34:06.239Z,98.07
2019-01-24T21:37:50.991Z,91.33
2019-01-24T21:41:35.674Z,86.87
2019-01-24T21:45:40.584Z,95.13
2019-01-24T21:49:25.241Z,82.60
2019-01-24T21:53:10.130Z,90.50
2019-01-24T21:56:54.809Z,78.77
2019-01-24T22:00:39.491Z,95.10
2019-01-24T22:04:24.135Z,95.17
2019-01-24T22:08:08.822Z,89.27
2019-01-24T22:11:53.451Z,92.63
2019-01-24T22:15:38.102Z,89.90
2019-01-24T22:19:22.728Z,91.27
2019-01-24T22:23:07.658Z,99.37
2019-01-24T22:26:52.327Z,91.20
2019-01-24T22:30:42.421Z,85.33
2019-01-24T22:34:21.244Z,84.50
2019-01-24T22:38:06.645Z,87.17
2019-01-24T22:41:51.305Z,96.17
2019-01-24T22:45:35.992Z,93.30
2019-01-24T22:49:20.653Z,103.47
2019-01-24T22:53:05.317Z,95.37
2019-01-24T22:56:49.966Z,94.83
2019-01-24T23:01:13.148Z,97.20
2019-01-24T23:04:57.753Z,96.67
2019-01-24T23:08:42.536Z,99.87
2019-01-24T23:12:27.204Z,99.00
2019-01-24T23:16:11.969Z,97.60
2019-01-24T23:19:56.633Z,96.97
2019-01-24T23:23:41.255Z,111.07
2019-01-24T23:27:26.256Z,98.47
2019-01-24T23:31:10.874Z,94.33
2019-01-24T23:34:55.506Z,95.60
2019-01-24T23:38:40.165Z,105.63
2019-01-24T23:42:25.090Z,99.43
2019-01-24T23:46:09.862Z,101.40
2019-01-24T23:49:54.517Z,94.47
2019-01-24T23:53:39.143Z,105.00
2019-01-24T23:57:24.116Z,105.37
